Ester, AK (99725)

12:03 AM AKST on February 28, 2017 (GMT -0900)
MWICA2 | | Change Station

Elev 2230 ft 65.18 °N, 148.07 °W | Updated 13 minutes ago

Snow
Snow
10.0 °F
Feels Like 10.0 °F
N
3.0
Wind Variable Wind from West
Gusts 7.0 mph

Today
High -- | Low -- °F
--% Chance of Precip.
Yesterday
High -- | Low -- °F
Precip. -- in
Pressure 29.95 in
Visibility 1.2 miles
Clouds Mostly Cloudy 2000 ft
Overcast 3500 ft
Dew Point 5.0 °F
Humidity 79%
Rainfall 0.02 in
Snow Depth Not available.
8:03 AM 6:07 PM
Waxing Crescent, 4% visible
METAR PAFA 280853Z 25007KT 1 1/4SM -SN BR BKN020 OVC035 M08/M09 A2991 RMK AO2 SLP141 P0001 60001 T10831094 410281083 51016 VISNO NE
Pressure 29.95 in
Visibility 1.2 miles
Clouds Mostly Cloudy 2000 ft
Overcast 3500 ft
Dew Point 5.0 °F
Humidity 79%
Rainfall 0.02 in
Snow Depth Not available.
8:03 AM 6:07 PM
Waxing Crescent, 4% visible
METAR PAFA 280853Z 25007KT 1 1/4SM -SN BR BKN020 OVC035 M08/M09 A2991 RMK AO2 SLP141 P0001 60001 T10831094 410281083 51016 VISNO NE

Get Your Daily Forecast Email!

Thanks for signing up!

Be on the lookout for a verification email in your inbox.

You'll start receiving the daily forecast at 8 AM.

×

10-Day Weather Forecast

Almanac

Astronomy

Feb. 28, 2017 Rise Set
Actual Time
Civil Twilight
Nautical Twilight
Astronomical Twilight
Moon
Length of Visible Light
Length of Day
Tomorrow will be .
, % of the Moon is Illuminated

Today's Extremes

State Highs State Lows

Community

WunderPhotos

Upload Photos

1,962,540 photos uploaded!

WunderBlog® & News

Nearby

Air Quality

  Air Quality AQ Index Pollutant
Not available.

Snow Depth

Station Depth Elevation

Earthquake Activity

City Distance Mag. Time & Date
Minimum magnitude displayed is 2.5.

Coastal Water Temperatures

Place Temperature

Stations

Nearby Weather Stations

Station Location Temp. Windchill Dew Point Humidity Wind Precip. Elev Updated Type
                   

Watches & Warnings

There are currently no watches in effect.